sensor_id;sensor_type;location;lat;lon;timestamp;temperature;humidity
15815;DHT22;8008;50.024;8.172;2024-03-23T04:02:19;9.70;99.90
15815;DHT22;8008;50.024;8.172;2024-03-23T04:04:46;9.70;99.90
15815;DHT22;8008;50.024;8.172;2024-03-23T04:07:13;9.70;99.90
15815;DHT22;8008;50.024;8.172;2024-03-23T04:09:40;9.70;99.90
15815;DHT22;8008;50.024;8.172;2024-03-23T04:12:06;9.60;99.90
15815;DHT22;8008;50.024;8.172;2024-03-23T04:14:33;9.60;99.90
15815;DHT22;8008;50.024;8.172;2024-03-23T04:16:59;9.60;99.90
15815;DHT22;8008;50.024;8.172;2024-03-23T04:19:28;9.40;99.90
15815;DHT22;8008;50.024;8.172;2024-03-23T04:21:54;9.50;99.90
15815;DHT22;8008;50.024;8.172;2024-03-23T04:24:21;9.30;99.90
15815;DHT22;8008;50.024;8.172;2024-03-23T04:26:48;9.20;99.90
15815;DHT22;8008;50.024;8.172;2024-03-23T04:29:15;9.10;99.90
15815;DHT22;8008;50.024;8.172;2024-03-23T04:31:41;9.10;99.90
15815;DHT22;8008;50.024;8.172;2024-03-23T04:34:08;9.00;99.90
15815;DHT22;8008;50.024;8.172;2024-03-23T04:36:35;8.90;99.90
15815;DHT22;8008;50.024;8.172;2024-03-23T04:39:02;8.70;99.90
15815;DHT22;8008;50.024;8.172;2024-03-23T04:41:29;8.60;99.90
15815;DHT22;8008;50.024;8.172;2024-03-23T04:43:57;8.60;99.90
15815;DHT22;8008;50.024;8.172;2024-03-23T04:46:23;8.60;99.90
15815;DHT22;8008;50.024;8.172;2024-03-23T04:48:50;8.60;99.90
15815;DHT22;8008;50.024;8.172;2024-03-23T04:51:21;8.50;99.90
15815;DHT22;8008;50.024;8.172;2024-03-23T04:53:49;8.60;99.90
15815;DHT22;8008;50.024;8.172;2024-03-23T04:56:16;8.60;99.90
15815;DHT22;8008;50.024;8.172;2024-03-23T04:58:43;8.60;99.90
15815;DHT22;8008;50.024;8.172;2024-03-23T05:01:10;8.50;99.90
15815;DHT22;8008;50.024;8.172;2024-03-23T05:03:37;8.50;99.90
15815;DHT22;8008;50.024;8.172;2024-03-23T05:06:04;8.60;99.90
15815;DHT22;8008;50.024;8.172;2024-03-23T05:08:31;8.60;99.90
15815;DHT22;8008;50.024;8.172;2024-03-23T05:10:59;8.60;99.90
15815;DHT22;8008;50.024;8.172;2024-03-23T05:13:25;8.50;99.90
15815;DHT22;8008;50.024;8.172;2024-03-23T05:15:52;8.50;99.90
15815;DHT22;8008;50.024;8.172;2024-03-23T05:18:19;8.50;99.90
15815;DHT22;8008;50.024;8.172;2024-03-23T05:20:46;8.50;99.90
15815;DHT22;8008;50.024;8.172;2024-03-23T05:23:12;8.50;99.90
15815;DHT22;8008;50.024;8.172;2024-03-23T05:25:39;8.50;99.90
15815;DHT22;8008;50.024;8.172;2024-03-23T05:28:06;8.50;99.90
15815;DHT22;8008;50.024;8.172;2024-03-23T05:30:33;8.30;99.90
15815;DHT22;8008;50.024;8.172;2024-03-23T05:32:59;8.40;99.90
15815;DHT22;8008;50.024;8.172;2024-03-23T05:35:26;8.20;99.90
15815;DHT22;8008;50.024;8.172;2024-03-23T05:37:52;8.20;99.90
15815;DHT22;8008;50.024;8.172;2024-03-23T05:40:19;8.20;99.90
15815;DHT22;8008;50.024;8.172;2024-03-23T05:42:45;8.10;99.90
15815;DHT22;8008;50.024;8.172;2024-03-23T05:45:14;8.20;99.90
15815;DHT22;8008;50.024;8.172;2024-03-23T05:47:40;8.10;99.90
15815;DHT22;8008;50.024;8.172;2024-03-23T05:50:07;8.20;99.90
15815;DHT22;8008;50.024;8.172;2024-03-23T05:52:35;8.10;99.90
15815;DHT22;8008;50.024;8.172;2024-03-23T05:55:02;8.10;99.90
15815;DHT22;8008;50.024;8.172;2024-03-23T05:57:28;8.00;99.90
15815;DHT22;8008;50.024;8.172;2024-03-23T05:59:56;7.90;99.90
15815;DHT22;8008;50.024;8.172;2024-03-23T06:02:24;7.90;99.90
15815;DHT22;8008;50.024;8.172;2024-03-23T06:04:51;7.90;99.90
15815;DHT22;8008;50.024;8.172;2024-03-23T06:07:17;7.90;99.90
15815;DHT22;8008;50.024;8.172;2024-03-23T06:09:44;7.80;99.90
15815;DHT22;8008;50.024;8.172;2024-03-23T06:12:10;7.80;99.90
15815;DHT22;8008;50.024;8.172;2024-03-23T06:14:37;7.80;99.90
15815;DHT22;8008;50.024;8.172;2024-03-23T06:17:03;7.70;99.90
15815;DHT22;8008;50.024;8.172;2024-03-23T06:19:33;7.70;99.90
15815;DHT22;8008;50.024;8.172;2024-03-23T06:21:58;7.70;99.90
15815;DHT22;8008;50.024;8.172;2024-03-23T06:24:25;7.70;99.90
15815;DHT22;8008;50.024;8.172;2024-03-23T06:26:51;7.70;99.90
15815;DHT22;8008;50.024;8.172;2024-03-23T06:29:19;7.80;99.90
15815;DHT22;8008;50.024;8.172;2024-03-23T06:31:53;7.80;99.90
15815;DHT22;8008;50.024;8.172;2024-03-23T06:34:20;7.80;99.90
15815;DHT22;8008;50.024;8.172;2024-03-23T06:36:49;7.80;99.90
15815;DHT22;8008;50.024;8.172;2024-03-23T06:39:16;7.50;99.90
15815;DHT22;8008;50.024;8.172;2024-03-23T06:41:42;7.40;99.90
15815;DHT22;8008;50.024;8.172;2024-03-23T06:44:09;7.50;99.90
15815;DHT22;8008;50.024;8.172;2024-03-23T06:46:35;7.40;99.90
15815;DHT22;8008;50.024;8.172;2024-03-23T06:49:02;7.40;99.90
15815;DHT22;8008;50.024;8.172;2024-03-23T06:51:28;7.50;99.90
15815;DHT22;8008;50.024;8.172;2024-03-23T06:53:58;7.50;99.90
15815;DHT22;8008;50.024;8.172;2024-03-23T06:56:24;7.60;99.90
15815;DHT22;8008;50.024;8.172;2024-03-23T06:58:51;7.70;99.90
15815;DHT22;8008;50.024;8.172;2024-03-23T07:01:17;7.70;99.90
15815;DHT22;8008;50.024;8.172;2024-03-23T07:03:44;7.70;99.90
15815;DHT22;8008;50.024;8.172;2024-03-23T07:06:10;7.90;99.90
15815;DHT22;8008;50.024;8.172;2024-03-23T07:08:37;7.90;99.90
15815;DHT22;8008;50.024;8.172;2024-03-23T07:11:04;8.00;99.90
15815;DHT22;8008;50.024;8.172;2024-03-23T07:13:31;7.80;99.90
15815;DHT22;8008;50.024;8.172;2024-03-23T07:15:57;7.70;99.90
15815;DHT22;8008;50.024;8.172;2024-03-23T07:18:25;7.60;99.90
15815;DHT22;8008;50.024;8.172;2024-03-23T07:20:52;7.60;99.90
15815;DHT22;8008;50.024;8.172;2024-03-23T07:23:20;7.50;99.90
15815;DHT22;8008;50.024;8.172;2024-03-23T07:25:56;7.50;99.90
15815;DHT22;8008;50.024;8.172;2024-03-23T07:28:24;7.70;99.90
15815;DHT22;8008;50.024;8.172;2024-03-23T07:31:04;7.70;99.90
15815;DHT22;8008;50.024;8.172;2024-03-23T07:33:32;7.90;99.90
15815;DHT22;8008;50.024;8.172;2024-03-23T07:35:58;8.00;99.90
15815;DHT22;8008;50.024;8.172;2024-03-23T07:38:26;8.10;99.90
15815;DHT22;8008;50.024;8.172;2024-03-23T07:41:02;7.90;99.90
15815;DHT22;8008;50.024;8.172;2024-03-23T07:43:30;8.00;99.90
15815;DHT22;8008;50.024;8.172;2024-03-23T07:45:56;8.00;99.90
15815;DHT22;8008;50.024;8.172;2024-03-23T07:48:23;8.00;99.90
15815;DHT22;8008;50.024;8.172;2024-03-23T07:50:59;8.00;99.90
15815;DHT22;8008;50.024;8.172;2024-03-23T07:53:27;8.00;99.90
15815;DHT22;8008;50.024;8.172;2024-03-23T07:55:55;7.90;99.90
15815;DHT22;8008;50.024;8.172;2024-03-23T07:58:22;7.90;99.90
15815;DHT22;8008;50.024;8.172;2024-03-23T08:00:49;7.90;99.90
15815;DHT22;8008;50.024;8.172;2024-03-23T08:03:17;8.10;99.90
15815;DHT22;8008;50.024;8.172;2024-03-23T08:05:43;7.90;99.90
15815;DHT22;8008;50.024;8.172;2024-03-23T08:08:10;7.90;99.90
15815;DHT22;8008;50.024;8.172;2024-03-23T08:10:36;8.20;99.90
15815;DHT22;8008;50.024;8.172;2024-03-23T08:13:04;8.30;99.90
15815;DHT22;8008;50.024;8.172;2024-03-23T08:15:30;8.40;99.90
15815;DHT22;8008;50.024;8.172;2024-03-23T08:18:00;8.50;99.90
15815;DHT22;8008;50.024;8.172;2024-03-23T08:20:26;8.50;99.90
15815;DHT22;8008;50.024;8.172;2024-03-23T08:22:53;8.40;99.90
15815;DHT22;8008;50.024;8.172;2024-03-23T08:25:19;8.40;99.90
15815;DHT22;8008;50.024;8.172;2024-03-23T08:27:46;8.50;99.90
15815;DHT22;8008;50.024;8.172;2024-03-23T08:30:13;8.60;99.90
15815;DHT22;8008;50.024;8.172;2024-03-23T08:32:40;8.60;99.90
15815;DHT22;8008;50.024;8.172;2024-03-23T08:35:08;8.60;99.90
15815;DHT22;8008;50.024;8.172;2024-03-23T08:37:35;8.80;99.90
15815;DHT22;8008;50.024;8.172;2024-03-23T08:40:01;8.90;99.90
15815;DHT22;8008;50.024;8.172;2024-03-23T08:42:30;8.80;99.90
15815;DHT22;8008;50.024;8.172;2024-03-23T08:44:57;8.90;99.90
15815;DHT22;8008;50.024;8.172;2024-03-23T08:47:24;9.10;99.90
15815;DHT22;8008;50.024;8.172;2024-03-23T08:49:50;9.10;99.90
15815;DHT22;8008;50.024;8.172;2024-03-23T08:52:18;9.20;99.90
15815;DHT22;8008;50.024;8.172;2024-03-23T08:54:44;9.40;99.90
15815;DHT22;8008;50.024;8.172;2024-03-23T08:57:11;9.40;99.90
15815;DHT22;8008;50.024;8.172;2024-03-23T08:59:37;9.30;99.90
15815;DHT22;8008;50.024;8.172;2024-03-23T09:02:05;9.30;99.90
15815;DHT22;8008;50.024;8.172;2024-03-23T09:04:31;9.40;99.90
15815;DHT22;8008;50.024;8.172;2024-03-23T09:06:58;9.50;99.90
15815;DHT22;8008;50.024;8.172;2024-03-23T09:09:27;9.60;99.90
15815;DHT22;8008;50.024;8.172;2024-03-23T09:11:53;9.60;99.90
15815;DHT22;8008;50.024;8.172;2024-03-23T09:14:19;9.70;99.90
15815;DHT22;8008;50.024;8.172;2024-03-23T09:16:49;9.70;99.90
15815;DHT22;8008;50.024;8.172;2024-03-23T09:19:16;9.70;99.90
15815;DHT22;8008;50.024;8.172;2024-03-23T09:21:43;9.80;99.90
15815;DHT22;8008;50.024;8.172;2024-03-23T09:24:09;10.00;99.90
15815;DHT22;8008;50.024;8.172;2024-03-23T09:26:38;10.10;99.90
15815;DHT22;8008;50.024;8.172;2024-03-23T09:29:04;10.10;99.90
15815;DHT22;8008;50.024;8.172;2024-03-23T09:31:31;10.10;99.90
15815;DHT22;8008;50.024;8.172;2024-03-23T09:33:57;10.30;99.90
15815;DHT22;8008;50.024;8.172;2024-03-23T09:36:24;10.30;98.20
15815;DHT22;8008;50.024;8.172;2024-03-23T09:38:50;10.20;97.20
15815;DHT22;8008;50.024;8.172;2024-03-23T09:41:18;10.10;97.00
15815;DHT22;8008;50.024;8.172;2024-03-23T09:43:45;10.10;96.20
15815;DHT22;8008;50.024;8.172;2024-03-23T09:46:14;10.20;96.50
15815;DHT22;8008;50.024;8.172;2024-03-23T09:48:40;10.30;95.30
15815;DHT22;8008;50.024;8.172;2024-03-23T09:51:09;10.30;95.70
15815;DHT22;8008;50.024;8.172;2024-03-23T09:53:36;10.40;95.80
15815;DHT22;8008;50.024;8.172;2024-03-23T09:56:04;10.30;94.60
15815;DHT22;8008;50.024;8.172;2024-03-23T09:58:30;10.10;94.50
15815;DHT22;8008;50.024;8.172;2024-03-23T10:00:59;10.10;94.90
15815;DHT22;8008;50.024;8.172;2024-03-23T10:03:25;10.10;94.50
15815;DHT22;8008;50.024;8.172;2024-03-23T10:06:00;10.00;94.00
15815;DHT22;8008;50.024;8.172;2024-03-23T10:08:29;10.00;94.10
15815;DHT22;8008;50.024;8.172;2024-03-23T10:10:56;10.10;93.70
15815;DHT22;8008;50.024;8.172;2024-03-23T10:13:27;10.10;93.80
15815;DHT22;8008;50.024;8.172;2024-03-23T10:15:56;9.90;94.60
15815;DHT22;8008;50.024;8.172;2024-03-23T10:18:24;9.60;98.00
15815;DHT22;8008;50.024;8.172;2024-03-23T10:21:06;8.40;99.90
15815;DHT22;8008;50.024;8.172;2024-03-23T10:23:32;7.70;99.90
15815;DHT22;8008;50.024;8.172;2024-03-23T10:26:12;7.20;99.90
15815;DHT22;8008;50.024;8.172;2024-03-23T10:28:53;7.00;99.90
15815;DHT22;8008;50.024;8.172;2024-03-23T10:31:22;7.00;99.90
15815;DHT22;8008;50.024;8.172;2024-03-23T10:33:50;7.00;99.90
15815;DHT22;8008;50.024;8.172;2024-03-23T10:36:20;7.00;99.90
15815;DHT22;8008;50.024;8.172;2024-03-23T10:38:46;6.90;99.90
15815;DHT22;8008;50.024;8.172;2024-03-23T10:41:14;6.70;99.90
15815;DHT22;8008;50.024;8.172;2024-03-23T10:43:40;6.70;99.90
15815;DHT22;8008;50.024;8.172;2024-03-23T10:46:08;6.70;99.90
15815;DHT22;8008;50.024;8.172;2024-03-23T10:48:35;6.80;99.90
15815;DHT22;8008;50.024;8.172;2024-03-23T10:51:04;6.90;99.90
15815;DHT22;8008;50.024;8.172;2024-03-23T10:53:33;7.00;99.90
15815;DHT22;8008;50.024;8.172;2024-03-23T10:56:00;7.10;99.90
15815;DHT22;8008;50.024;8.172;2024-03-23T10:58:30;7.20;99.90
15815;DHT22;8008;50.024;8.172;2024-03-23T11:00:58;7.20;99.90
15815;DHT22;8008;50.024;8.172;2024-03-23T11:03:34;7.30;99.90
15815;DHT22;8008;50.024;8.172;2024-03-23T11:06:04;7.20;99.90
15815;DHT22;8008;50.024;8.172;2024-03-23T11:08:32;7.20;99.90
15815;DHT22;8008;50.024;8.172;2024-03-23T11:11:17;7.30;99.90
15815;DHT22;8008;50.024;8.172;2024-03-23T11:13:43;7.30;99.90
15815;DHT22;8008;50.024;8.172;2024-03-23T11:16:14;7.50;99.90
15815;DHT22;8008;50.024;8.172;2024-03-23T11:18:41;7.60;99.90
15815;DHT22;8008;50.024;8.172;2024-03-23T11:21:11;7.70;99.90
15815;DHT22;8008;50.024;8.172;2024-03-23T11:23:37;7.90;99.90
15815;DHT22;8008;50.024;8.172;2024-03-23T11:26:07;8.30;99.90
15815;DHT22;8008;50.024;8.172;2024-03-23T11:28:33;8.70;99.90
15815;DHT22;8008;50.024;8.172;2024-03-23T11:31:00;8.90;99.90
15815;DHT22;8008;50.024;8.172;2024-03-23T11:33:26;9.40;99.90
15815;DHT22;8008;50.024;8.172;2024-03-23T11:35:54;10.00;99.90
15815;DHT22;8008;50.024;8.172;2024-03-23T11:38:22;10.40;99.90
15815;DHT22;8008;50.024;8.172;2024-03-23T11:40:50;10.60;99.90
15815;DHT22;8008;50.024;8.172;2024-03-23T11:43:17;10.60;99.90
15815;DHT22;8008;50.024;8.172;2024-03-23T11:45:45;10.80;99.90
15815;DHT22;8008;50.024;8.172;2024-03-23T11:48:13;11.20;99.90
15815;DHT22;8008;50.024;8.172;2024-03-23T11:50:41;11.40;99.90
15815;DHT22;8008;50.024;8.172;2024-03-23T11:53:18;11.40;99.90
15815;DHT22;8008;50.024;8.172;2024-03-23T11:55:48;11.70;99.90
15815;DHT22;8008;50.024;8.172;2024-03-23T11:58:15;12.00;99.90
15815;DHT22;8008;50.024;8.172;2024-03-23T12:00:42;12.20;99.90
15815;DHT22;8008;50.024;8.172;2024-03-23T12:03:09;12.50;99.90
15815;DHT22;8008;50.024;8.172;2024-03-23T12:05:37;11.90;98.70
15815;DHT22;8008;50.024;8.172;2024-03-23T12:08:21;11.20;99.90
15815;DHT22;8008;50.024;8.172;2024-03-23T12:10:51;11.00;99.90
15815;DHT22;8008;50.024;8.172;2024-03-23T12:13:19;11.10;99.90
15815;DHT22;8008;50.024;8.172;2024-03-23T12:15:47;11.20;99.70
15815;DHT22;8008;50.024;8.172;2024-03-23T12:18:13;11.20;98.50
15815;DHT22;8008;50.024;8.172;2024-03-23T12:20:40;11.30;98.40
15815;DHT22;8008;50.024;8.172;2024-03-23T12:23:07;11.40;95.30
15815;DHT22;8008;50.024;8.172;2024-03-23T12:25:37;11.50;94.20
15815;DHT22;8008;50.024;8.172;2024-03-23T12:28:05;11.50;93.60
15815;DHT22;8008;50.024;8.172;2024-03-23T12:30:34;11.50;93.00
15815;DHT22;8008;50.024;8.172;2024-03-23T12:33:00;11.50;92.40
15815;DHT22;8008;50.024;8.172;2024-03-23T12:35:29;11.50;93.60
15815;DHT22;8008;50.024;8.172;2024-03-23T12:37:55;11.50;93.10
15815;DHT22;8008;50.024;8.172;2024-03-23T12:40:22;11.20;91.80
15815;DHT22;8008;50.024;8.172;2024-03-23T12:42:48;10.80;95.30
15815;DHT22;8008;50.024;8.172;2024-03-23T12:45:16;9.50;99.90
15815;DHT22;8008;50.024;8.172;2024-03-23T12:47:42;8.30;99.90
15815;DHT22;8008;50.024;8.172;2024-03-23T12:50:09;7.70;99.90
15815;DHT22;8008;50.024;8.172;2024-03-23T12:52:35;7.40;99.90
15815;DHT22;8008;50.024;8.172;2024-03-23T12:55:03;7.20;99.90
15815;DHT22;8008;50.024;8.172;2024-03-23T12:57:29;7.10;99.90
15815;DHT22;8008;50.024;8.172;2024-03-23T12:59:56;7.00;99.90
15815;DHT22;8008;50.024;8.172;2024-03-23T13:02:24;7.10;99.90
15815;DHT22;8008;50.024;8.172;2024-03-23T13:04:52;7.20;99.90
15815;DHT22;8008;50.024;8.172;2024-03-23T13:07:19;7.30;99.90
15815;DHT22;8008;50.024;8.172;2024-03-23T13:09:49;7.50;99.90
15815;DHT22;8008;50.024;8.172;2024-03-23T13:12:15;7.80;99.90
15815;DHT22;8008;50.024;8.172;2024-03-23T13:14:44;8.20;99.90
15815;DHT22;8008;50.024;8.172;2024-03-23T13:17:10;8.40;99.90
15815;DHT22;8008;50.024;8.172;2024-03-23T13:19:39;8.50;99.90
15815;DHT22;8008;50.024;8.172;2024-03-23T13:22:05;8.60;99.90
15815;DHT22;8008;50.024;8.172;2024-03-23T13:24:32;8.70;99.90
15815;DHT22;8008;50.024;8.172;2024-03-23T13:26:58;8.80;99.90
15815;DHT22;8008;50.024;8.172;2024-03-23T13:29:25;8.80;99.90
15815;DHT22;8008;50.024;8.172;2024-03-23T13:31:52;8.90;99.90
15815;DHT22;8008;50.024;8.172;2024-03-23T13:34:19;9.10;99.90
15815;DHT22;8008;50.024;8.172;2024-03-23T13:36:47;9.10;99.90
15815;DHT22;8008;50.024;8.172;2024-03-23T13:39:14;9.20;99.90
15815;DHT22;8008;50.024;8.172;2024-03-23T13:41:42;9.30;99.90
15815;DHT22;8008;50.024;8.172;2024-03-23T13:44:11;9.40;99.90
15815;DHT22;8008;50.024;8.172;2024-03-23T13:46:37;9.50;99.90
15815;DHT22;8008;50.024;8.172;2024-03-23T13:49:05;9.60;99.90
15815;DHT22;8008;50.024;8.172;2024-03-23T13:51:31;9.90;99.90
15815;DHT22;8008;50.024;8.172;2024-03-23T13:53:59;10.10;99.90
15815;DHT22;8008;50.024;8.172;2024-03-23T13:56:26;10.20;99.90
15815;DHT22;8008;50.024;8.172;2024-03-23T13:58:55;10.50;99.90
15815;DHT22;8008;50.024;8.172;2024-03-23T14:01:21;10.70;99.90
15815;DHT22;8008;50.024;8.172;2024-03-23T14:03:48;10.80;99.90
15815;DHT22;8008;50.024;8.172;2024-03-23T14:06:15;10.80;99.90
15815;DHT22;8008;50.024;8.172;2024-03-23T14:08:42;10.70;99.90
15815;DHT22;8008;50.024;8.172;2024-03-23T14:11:10;10.50;99.90
15815;DHT22;8008;50.024;8.172;2024-03-23T14:13:37;10.80;99.90
15815;DHT22;8008;50.024;8.172;2024-03-23T14:16:04;11.40;99.90
15815;DHT22;8008;50.024;8.172;2024-03-23T14:18:31;12.40;99.90
15815;DHT22;8008;50.024;8.172;2024-03-23T14:20:58;13.80;99.90
15815;DHT22;8008;50.024;8.172;2024-03-23T14:23:26;14.40;96.60
15815;DHT22;8008;50.024;8.172;2024-03-23T14:25:53;13.40;94.10
15815;DHT22;8008;50.024;8.172;2024-03-23T14:28:23;13.90;94.60
15815;DHT22;8008;50.024;8.172;2024-03-23T14:30:49;14.70;90.90
15815;DHT22;8008;50.024;8.172;2024-03-23T14:33:17;15.30;90.90
15815;DHT22;8008;50.024;8.172;2024-03-23T14:35:43;16.30;88.20
15815;DHT22;8008;50.024;8.172;2024-03-23T14:38:12;16.50;82.90
15815;DHT22;8008;50.024;8.172;2024-03-23T14:40:38;16.90;82.10
15815;DHT22;8008;50.024;8.172;2024-03-23T14:43:04;17.20;81.20
15815;DHT22;8008;50.024;8.172;2024-03-23T14:45:33;18.70;77.40
15815;DHT22;8008;50.024;8.172;2024-03-23T14:47:59;16.50;73.30
15815;DHT22;8008;50.024;8.172;2024-03-23T14:50:26;14.70;75.00
15815;DHT22;8008;50.024;8.172;2024-03-23T14:52:52;13.30;76.00
15815;DHT22;8008;50.024;8.172;2024-03-23T14:55:19;12.50;77.60
15815;DHT22;8008;50.024;8.172;2024-03-23T14:57:45;11.80;80.60
15815;DHT22;8008;50.024;8.172;2024-03-23T15:00:13;11.50;83.50
15815;DHT22;8008;50.024;8.172;2024-03-23T15:02:40;11.00;81.20
15815;DHT22;8008;50.024;8.172;2024-03-23T15:05:08;10.90;82.30
15815;DHT22;8008;50.024;8.172;2024-03-23T15:07:35;10.70;82.80
15815;DHT22;8008;50.024;8.172;2024-03-23T15:10:04;10.70;84.40
15815;DHT22;8008;50.024;8.172;2024-03-23T15:12:30;10.60;85.40
15815;DHT22;8008;50.024;8.172;2024-03-23T15:14:59;10.60;87.70
15815;DHT22;8008;50.024;8.172;2024-03-23T15:17:26;10.50;87.30
15815;DHT22;8008;50.024;8.172;2024-03-23T15:19:54;10.50;88.50
15815;DHT22;8008;50.024;8.172;2024-03-23T15:22:20;10.20;90.30
15815;DHT22;8008;50.024;8.172;2024-03-23T15:24:48;9.70;92.60
15815;DHT22;8008;50.024;8.172;2024-03-23T15:27:14;9.60;95.40
15815;DHT22;8008;50.024;8.172;2024-03-23T15:29:41;9.50;96.20
15815;DHT22;8008;50.024;8.172;2024-03-23T15:32:11;9.30;97.10
15815;DHT22;8008;50.024;8.172;2024-03-23T15:34:39;9.60;98.60
15815;DHT22;8008;50.024;8.172;2024-03-23T15:37:07;9.60;96.70
15815;DHT22;8008;50.024;8.172;2024-03-23T15:39:34;9.70;98.80
15815;DHT22;8008;50.024;8.172;2024-03-23T15:42:00;9.90;99.00
15815;DHT22;8008;50.024;8.172;2024-03-23T15:44:27;9.80;97.10
15815;DHT22;8008;50.024;8.172;2024-03-23T15:46:53;9.80;98.20
15815;DHT22;8008;50.024;8.172;2024-03-23T15:49:20;9.70;98.80
15815;DHT22;8008;50.024;8.172;2024-03-23T15:51:46;9.70;98.80
15815;DHT22;8008;50.024;8.172;2024-03-23T15:54:14;9.70;99.00
15815;DHT22;8008;50.024;8.172;2024-03-23T15:56:40;9.70;99.90
15815;DHT22;8008;50.024;8.172;2024-03-23T15:59:07;9.80;99.90
15815;DHT22;8008;50.024;8.172;2024-03-23T16:01:33;9.70;98.10
15815;DHT22;8008;50.024;8.172;2024-03-23T16:04:01;9.50;97.00
15815;DHT22;8008;50.024;8.172;2024-03-23T16:06:27;9.40;96.60
15815;DHT22;8008;50.024;8.172;2024-03-23T16:08:54;9.30;96.00
15815;DHT22;8008;50.024;8.172;2024-03-23T16:11:21;9.30;95.80
15815;DHT22;8008;50.024;8.172;2024-03-23T16:13:48;9.30;95.40
15815;DHT22;8008;50.024;8.172;2024-03-23T16:16:14;9.20;94.70
15815;DHT22;8008;50.024;8.172;2024-03-23T16:18:42;9.10;94.00
15815;DHT22;8008;50.024;8.172;2024-03-23T16:21:10;9.10;94.30
15815;DHT22;8008;50.024;8.172;2024-03-23T16:23:37;9.10;94.20
15815;DHT22;8008;50.024;8.172;2024-03-23T16:26:03;9.20;93.00
15815;DHT22;8008;50.024;8.172;2024-03-23T16:28:33;9.20;92.90
15815;DHT22;8008;50.024;8.172;2024-03-23T16:31:01;9.20;93.60
15815;DHT22;8008;50.024;8.172;2024-03-23T16:33:29;9.10;93.90
15815;DHT22;8008;50.024;8.172;2024-03-23T16:35:57;9.20;95.00
15815;DHT22;8008;50.024;8.172;2024-03-23T16:38:24;9.10;93.50
15815;DHT22;8008;50.024;8.172;2024-03-23T16:40:55;9.10;94.00
15815;DHT22;8008;50.024;8.172;2024-03-23T16:43:22;9.10;94.00
15815;DHT22;8008;50.024;8.172;2024-03-23T16:45:54;9.10;94.50
15815;DHT22;8008;50.024;8.172;2024-03-23T16:48:22;9.10;94.50
15815;DHT22;8008;50.024;8.172;2024-03-23T16:50:48;9.00;93.90
15815;DHT22;8008;50.024;8.172;2024-03-23T16:53:15;9.00;94.40
15815;DHT22;8008;50.024;8.172;2024-03-23T16:55:41;8.90;94.10
15815;DHT22;8008;50.024;8.172;2024-03-23T16:58:08;8.70;93.50
15815;DHT22;8008;50.024;8.172;2024-03-23T17:00:34;8.60;93.50
15815;DHT22;8008;50.024;8.172;2024-03-23T17:03:03;8.60;93.60
15815;DHT22;8008;50.024;8.172;2024-03-23T17:05:35;8.60;93.20
15815;DHT22;8008;50.024;8.172;2024-03-23T17:08:02;8.50;93.40
15815;DHT22;8008;50.024;8.172;2024-03-23T17:10:29;8.50;93.50
15815;DHT22;8008;50.024;8.172;2024-03-23T17:12:56;8.50;93.70
15815;DHT22;8008;50.024;8.172;2024-03-23T17:15:22;8.50;94.00
15815;DHT22;8008;50.024;8.172;2024-03-23T17:17:49;8.50;94.10
15815;DHT22;8008;50.024;8.172;2024-03-23T17:20:16;8.50;94.20
15815;DHT22;8008;50.024;8.172;2024-03-23T17:22:43;8.40;94.10
15815;DHT22;8008;50.024;8.172;2024-03-23T17:25:09;8.30;94.50
15815;DHT22;8008;50.024;8.172;2024-03-23T17:27:37;8.30;95.00
15815;DHT22;8008;50.024;8.172;2024-03-23T17:30:04;8.30;94.80
15815;DHT22;8008;50.024;8.172;2024-03-23T17:32:31;8.30;95.90
15815;DHT22;8008;50.024;8.172;2024-03-23T17:34:58;8.30;97.10
15815;DHT22;8008;50.024;8.172;2024-03-23T17:37:26;8.10;98.30
15815;DHT22;8008;50.024;8.172;2024-03-23T17:39:52;8.00;99.90
15815;DHT22;8008;50.024;8.172;2024-03-23T17:42:19;8.00;99.90
15815;DHT22;8008;50.024;8.172;2024-03-23T17:44:45;7.90;99.90
15815;DHT22;8008;50.024;8.172;2024-03-23T17:47:12;7.90;99.90
15815;DHT22;8008;50.024;8.172;2024-03-23T17:49:38;7.90;99.90
15815;DHT22;8008;50.024;8.172;2024-03-23T17:52:10;7.90;99.90
15815;DHT22;8008;50.024;8.172;2024-03-23T17:54:40;7.80;99.90
15815;DHT22;8008;50.024;8.172;2024-03-23T17:57:07;7.60;99.90
15815;DHT22;8008;50.024;8.172;2024-03-23T17:59:33;7.30;99.90
15815;DHT22;8008;50.024;8.172;2024-03-23T18:02:00;7.10;99.90
15815;DHT22;8008;50.024;8.172;2024-03-23T18:04:26;7.00;99.90
15815;DHT22;8008;50.024;8.172;2024-03-23T18:06:54;7.00;99.90
15815;DHT22;8008;50.024;8.172;2024-03-23T18:09:20;6.90;99.90
15815;DHT22;8008;50.024;8.172;2024-03-23T18:11:48;6.80;99.90
15815;DHT22;8008;50.024;8.172;2024-03-23T18:14:14;6.90;99.90
15815;DHT22;8008;50.024;8.172;2024-03-23T18:16:41;7.00;99.90
15815;DHT22;8008;50.024;8.172;2024-03-23T18:19:07;7.20;99.90
15815;DHT22;8008;50.024;8.172;2024-03-23T18:21:34;7.20;99.90
15815;DHT22;8008;50.024;8.172;2024-03-23T18:24:00;7.20;99.90
15815;DHT22;8008;50.024;8.172;2024-03-23T18:26:27;7.20;99.90
15815;DHT22;8008;50.024;8.172;2024-03-23T18:28:55;7.20;99.90
15815;DHT22;8008;50.024;8.172;2024-03-23T18:31:22;7.20;99.90
15815;DHT22;8008;50.024;8.172;2024-03-23T18:33:48;7.00;99.90
15815;DHT22;8008;50.024;8.172;2024-03-23T18:36:15;6.90;99.90
15815;DHT22;8008;50.024;8.172;2024-03-23T18:38:41;7.00;99.90
15815;DHT22;8008;50.024;8.172;2024-03-23T18:41:08;7.00;99.90
15815;DHT22;8008;50.024;8.172;2024-03-23T18:43:34;7.10;99.90
15815;DHT22;8008;50.024;8.172;2024-03-23T18:46:03;7.00;99.90
15815;DHT22;8008;50.024;8.172;2024-03-23T18:48:29;6.80;99.90
15815;DHT22;8008;50.024;8.172;2024-03-23T18:50:57;6.60;99.90
15815;DHT22;8008;50.024;8.172;2024-03-23T18:53:23;6.30;99.90
15815;DHT22;8008;50.024;8.172;2024-03-23T18:55:54;6.10;99.90
15815;DHT22;8008;50.024;8.172;2024-03-23T18:58:21;6.00;99.90
15815;DHT22;8008;50.024;8.172;2024-03-23T19:00:48;5.90;99.90
15815;DHT22;8008;50.024;8.172;2024-03-23T19:03:15;5.90;99.90
15815;DHT22;8008;50.024;8.172;2024-03-23T19:05:42;5.80;99.90
15815;DHT22;8008;50.024;8.172;2024-03-23T19:08:08;5.60;99.90
15815;DHT22;8008;50.024;8.172;2024-03-23T19:10:35;5.50;99.90
15815;DHT22;8008;50.024;8.172;2024-03-23T19:13:01;5.50;99.90
15815;DHT22;8008;50.024;8.172;2024-03-23T19:15:28;5.50;99.90
15815;DHT22;8008;50.024;8.172;2024-03-23T19:17:54;5.50;99.90
15815;DHT22;8008;50.024;8.172;2024-03-23T19:20:23;5.50;99.90
15815;DHT22;8008;50.024;8.172;2024-03-23T19:22:49;5.40;99.90
15815;DHT22;8008;50.024;8.172;2024-03-23T19:25:16;5.50;99.90
15815;DHT22;8008;50.024;8.172;2024-03-23T19:27:43;5.50;99.90
15815;DHT22;8008;50.024;8.172;2024-03-23T19:30:10;5.60;99.90
15815;DHT22;8008;50.024;8.172;2024-03-23T19:32:37;5.60;99.90
15815;DHT22;8008;50.024;8.172;2024-03-23T19:35:04;5.60;99.90
15815;DHT22;8008;50.024;8.172;2024-03-23T19:37:31;5.70;99.90
15815;DHT22;8008;50.024;8.172;2024-03-23T19:39:58;5.70;99.90
15815;DHT22;8008;50.024;8.172;2024-03-23T19:42:24;5.60;99.90
15815;DHT22;8008;50.024;8.172;2024-03-23T19:44:51;5.60;99.90
15815;DHT22;8008;50.024;8.172;2024-03-23T19:47:17;5.60;99.90
15815;DHT22;8008;50.024;8.172;2024-03-23T19:49:44;5.60;99.90
15815;DHT22;8008;50.024;8.172;2024-03-23T19:52:10;5.60;99.90
15815;DHT22;8008;50.024;8.172;2024-03-23T19:54:38;5.50;99.90
15815;DHT22;8008;50.024;8.172;2024-03-23T19:57:05;5.60;99.90
15815;DHT22;8008;50.024;8.172;2024-03-23T19:59:32;5.50;99.90